Terminal Aerodrome Forecast
Issued by NWS

Home | Current Version | Previous Version | Text Only | Print | Product List | Glossary On
Versions: 1 2 3 4 5 6 7 8 9 10 11 12 13 14 15
000
FTUS43 KMQT 260520
TAFIWD
TAF
KIWD 260520Z 2606/2706 VRB03KT 1/4SM FG VV002
     FM261200 23003KT 1SM BR BKN003
     FM261500 32004KT P6SM BKN010
     FM261900 34005KT P6SM VCSH BKN025
     FM270000 VRB03KT 3SM BR VCSH OVC008
      AMD LTD TO CLD VIS AND WIND=

USA.gov is the U.S. government's official web portal to all federal, state and local government web resources and services.